createdAt,value
2023-04-17T00:01:43.983Z,102199.84
2023-04-17T00:04:11.500Z,102192.97
2023-04-17T00:06:45.094Z,102195.78
2023-04-17T00:09:12.564Z,102195.91
2023-04-17T00:11:39.570Z,102196.53
2023-04-17T00:14:06.747Z,102189.69
2023-04-17T00:16:33.640Z,102188.38
2023-04-17T00:19:00.527Z,102183.50
2023-04-17T00:21:29.846Z,102188.88
2023-04-17T00:23:56.906Z,102181.75
2023-04-17T00:26:24.200Z,102188.66
2023-04-17T00:28:52.032Z,102181.69
2023-04-17T00:31:19.001Z,102177.38
2023-04-17T00:33:46.568Z,102183.72
2023-04-17T00:36:15.525Z,102177.47
2023-04-17T00:38:42.696Z,102183.66
2023-04-17T00:41:09.814Z,102181.31
2023-04-17T00:43:36.773Z,102178.22
2023-04-17T00:46:04.646Z,102172.63
2023-04-17T00:48:33.098Z,102169.59
2023-04-17T00:51:03.507Z,102174.88
2023-04-17T00:53:33.789Z,102166.69
2023-04-17T00:56:01.569Z,102168.03
2023-04-17T00:58:28.446Z,102162.25
2023-04-17T01:00:55.343Z,102153.38
2023-04-17T01:03:23.269Z,102159.81
2023-04-17T01:05:51.775Z,102164.50
2023-04-17T01:08:19.665Z,102167.22
2023-04-17T01:10:47.348Z,102162.69
2023-04-17T01:13:14.114Z,102167.88
2023-04-17T01:15:42.993Z,102162.72
2023-04-17T01:18:09.928Z,102164.34
2023-04-17T01:20:37.739Z,102165.16
2023-04-17T01:23:04.569Z,102163.81
2023-04-17T01:25:31.474Z,102167.06
2023-04-17T01:27:58.234Z,102164.31
2023-04-17T01:30:26.778Z,102165.84
2023-04-17T01:33:06.214Z,102170.09
2023-04-17T01:35:33.006Z,102170.78
2023-04-17T01:37:59.807Z,102173.38
2023-04-17T01:40:26.566Z,102155.34
2023-04-17T01:42:53.410Z,102171.47
2023-04-17T01:45:21.185Z,102173.09
2023-04-17T01:47:48.852Z,102173.38
2023-04-17T01:50:15.746Z,102170.19
2023-04-17T01:52:42.873Z,102179.00
2023-04-17T01:55:09.936Z,102174.81
2023-04-17T01:57:36.977Z,102167.84
2023-04-17T02:00:07.946Z,102168.66
2023-04-17T02:02:39.464Z,102172.50
2023-04-17T02:05:06.955Z,102176.13
2023-04-17T02:07:33.657Z,102169.34
2023-04-17T02:10:00.366Z,102161.31
2023-04-17T02:12:27.322Z,102172.25
2023-04-17T02:14:54.245Z,102173.81
2023-04-17T02:17:21.078Z,102168.44
2023-04-17T02:19:47.877Z,102166.34
2023-04-17T02:22:14.641Z,102162.50
2023-04-17T02:24:41.336Z,102159.50
2023-04-17T02:27:08.124Z,102150.84
2023-04-17T02:29:35.476Z,102162.19
2023-04-17T02:32:02.217Z,102162.94
2023-04-17T02:34:30.172Z,102157.22
2023-04-17T02:36:57.179Z,102154.59
2023-04-17T02:39:24.606Z,102158.13
2023-04-17T02:41:51.308Z,102155.53
2023-04-17T02:44:18.178Z,102157.38
2023-04-17T02:46:44.978Z,102156.91
2023-04-17T02:49:12.995Z,102164.50
2023-04-17T02:51:39.976Z,102162.00
2023-04-17T02:54:06.766Z,102165.75
2023-04-17T02:56:33.778Z,102164.88
2023-04-17T02:59:00.610Z,102161.69
2023-04-17T03:01:28.022Z,102160.41
2023-04-17T03:03:55.133Z,102167.38
2023-04-17T03:06:24.142Z,102163.97
2023-04-17T03:08:51.658Z,102165.03
2023-04-17T03:11:18.590Z,102163.50
2023-04-17T03:13:45.618Z,102159.06
2023-04-17T03:16:13.768Z,102159.31
2023-04-17T03:18:41.752Z,102159.16
2023-04-17T03:21:08.510Z,102156.44
2023-04-17T03:23:35.795Z,102163.47
2023-04-17T03:26:02.598Z,102156.78
2023-04-17T03:28:32.507Z,102154.88
2023-04-17T03:30:59.711Z,102156.25
2023-04-17T03:33:27.217Z,102154.28
2023-04-17T03:35:56.769Z,102152.16
2023-04-17T03:38:23.479Z,102156.13
2023-04-17T03:40:50.433Z,102155.63
2023-04-17T03:43:17.252Z,102157.31
2023-04-17T03:45:45.674Z,102161.47
2023-04-17T03:48:13.084Z,102153.78
2023-04-17T03:50:40.007Z,102159.53
2023-04-17T03:53:06.822Z,102159.88
2023-04-17T03:55:33.663Z,102161.81
2023-04-17T03:58:02.591Z,102158.78
2023-04-17T04:00:31.899Z,102157.97
2023-04-17T04:03:04.935Z,102159.00
2023-04-17T04:05:38.474Z,102156.63
2023-04-17T04:08:07.075Z,102154.22
2023-04-17T04:10:40.453Z,102154.75
2023-04-17T04:13:07.311Z,102158.91
2023-04-17T04:15:34.554Z,102151.69
2023-04-17T04:18:05.795Z,102162.72
2023-04-17T04:20:32.612Z,102159.72
2023-04-17T04:23:10.950Z,102150.47
2023-04-17T04:25:41.776Z,102163.63
2023-04-17T04:28:23.452Z,102159.34
2023-04-17T04:30:51.428Z,102159.28
2023-04-17T04:33:21.026Z,102154.66
2023-04-17T04:35:48.840Z,102162.66
2023-04-17T04:38:17.265Z,102164.66
2023-04-17T04:40:50.297Z,102164.50
2023-04-17T04:43:17.911Z,102170.25
2023-04-17T04:45:47.120Z,102177.41
2023-04-17T04:48:14.052Z,102170.25
2023-04-17T04:50:41.098Z,102173.78
2023-04-17T04:53:07.807Z,102174.25
2023-04-17T04:55:54.552Z,102173.19
2023-04-17T04:58:21.601Z,102171.56
2023-04-17T05:00:49.331Z,102173.47
2023-04-17T05:03:29.495Z,102174.03
2023-04-17T05:05:58.043Z,102177.00
2023-04-17T05:08:30.756Z,102163.41
2023-04-17T05:11:08.716Z,102178.63
2023-04-17T05:13:35.768Z,102173.91
2023-04-17T05:16:02.820Z,102179.78
2023-04-17T05:18:30.292Z,102182.56
2023-04-17T05:20:57.076Z,102184.47
2023-04-17T05:23:26.241Z,102185.16
2023-04-17T05:25:52.961Z,102180.75
2023-04-17T05:28:20.302Z,102192.34
2023-04-17T05:30:48.894Z,102188.03
2023-04-17T05:33:21.633Z,102184.34
2023-04-17T05:35:52.332Z,102194.09
2023-04-17T05:38:21.411Z,102190.53
2023-04-17T05:40:48.229Z,102187.66
2023-04-17T05:43:16.685Z,102195.16
2023-04-17T05:45:43.462Z,102193.88
2023-04-17T05:48:11.015Z,102192.69
2023-04-17T05:50:37.797Z,102200.41
2023-04-17T05:53:06.195Z,102196.69
2023-04-17T05:55:37.913Z,102198.88
2023-04-17T05:58:22.622Z,102202.78
2023-04-17T06:00:52.911Z,102200.06
2023-04-17T06:03:21.158Z,102210.41
2023-04-17T06:05:52.804Z,102201.72
2023-04-17T06:08:20.931Z,102207.84
2023-04-17T06:10:50.448Z,102218.13
2023-04-17T06:13:17.521Z,102219.53
2023-04-17T06:15:47.280Z,102204.53
2023-04-17T06:18:16.188Z,102216.88
2023-04-17T06:20:46.208Z,102216.44
2023-04-17T06:23:13.802Z,102208.34
2023-04-17T06:25:42.321Z,102215.72
2023-04-17T06:28:10.877Z,102223.75
2023-04-17T06:30:38.442Z,102216.59
2023-04-17T06:33:07.148Z,102217.00
2023-04-17T06:35:35.346Z,102218.63
2023-04-17T06:38:12.631Z,102218.59
2023-04-17T06:40:39.790Z,102227.69
2023-04-17T06:43:10.277Z,102227.44
2023-04-17T06:45:42.436Z,102219.66
2023-04-17T06:48:09.731Z,102231.63
2023-04-17T06:50:38.992Z,102235.75
2023-04-17T06:53:06.567Z,102231.50
2023-04-17T06:55:36.374Z,102233.66
2023-04-17T06:58:05.003Z,102237.91
2023-04-17T07:00:31.736Z,102243.28
2023-04-17T07:02:58.630Z,102255.38
2023-04-17T07:05:25.861Z,102254.94
2023-04-17T07:07:52.597Z,102252.28
2023-04-17T07:10:19.680Z,102249.59
2023-04-17T07:12:47.246Z,102256.47
2023-04-17T07:15:14.174Z,102254.97
2023-04-17T07:17:41.040Z,102261.91
2023-04-17T07:20:08.536Z,102260.53
2023-04-17T07:22:35.596Z,102262.59
2023-04-17T07:25:02.393Z,102266.59
2023-04-17T07:27:29.150Z,102267.38
2023-04-17T07:29:56.554Z,102264.88
2023-04-17T07:32:26.334Z,102260.03
2023-04-17T07:34:53.214Z,102264.25
2023-04-17T07:37:20.167Z,102267.72
2023-04-17T07:39:50.293Z,102265.38
2023-04-17T07:42:17.142Z,102274.03
2023-04-17T07:44:43.794Z,102268.00
2023-04-17T07:47:10.810Z,102269.53
2023-04-17T07:49:39.729Z,102267.09
2023-04-17T07:52:06.701Z,102269.13
2023-04-17T07:54:33.521Z,102266.53
2023-04-17T07:57:03.620Z,102268.00
2023-04-17T07:59:30.877Z,102260.47
2023-04-17T08:01:58.326Z,102266.59
2023-04-17T08:04:26.154Z,102273.53
2023-04-17T08:06:53.012Z,102267.22
2023-04-17T08:09:21.361Z,102273.50
2023-04-17T08:11:56.898Z,102272.63
2023-04-17T08:14:25.155Z,102272.63
2023-04-17T08:16:52.226Z,102276.47
2023-04-17T08:19:19.111Z,102275.88
2023-04-17T08:21:49.865Z,102279.38
2023-04-17T08:24:19.765Z,102272.97
2023-04-17T08:26:47.746Z,102274.38
2023-04-17T08:29:15.118Z,102281.50
2023-04-17T08:31:42.700Z,102286.28
2023-04-17T08:36:40.133Z,102289.22
2023-04-17T08:39:08.782Z,102294.13
2023-04-17T08:41:41.530Z,102294.56
2023-04-17T08:44:08.629Z,102286.38
2023-04-17T08:46:43.255Z,102279.47
2023-04-17T08:49:10.520Z,102280.25
2023-04-17T08:51:37.590Z,102283.50
2023-04-17T08:54:05.083Z,102284.34
2023-04-17T08:56:31.869Z,102288.50
2023-04-17T08:59:03.257Z,102284.94
2023-04-17T09:01:30.380Z,102281.84
2023-04-17T09:04:03.189Z,102296.66
2023-04-17T09:06:49.752Z,102286.06
2023-04-17T09:09:19.028Z,102276.19
2023-04-17T09:11:45.949Z,102283.47
2023-04-17T09:14:31.593Z,102291.44
2023-04-17T09:16:58.375Z,102278.13
2023-04-17T09:19:25.308Z,102291.72
2023-04-17T09:21:54.656Z,102285.19
2023-04-17T09:24:34.761Z,102287.91
2023-04-17T09:27:31.955Z,102286.91
2023-04-17T09:30:03.937Z,102282.56
2023-04-17T09:32:32.762Z,102286.31
2023-04-17T09:35:01.652Z,102290.59
2023-04-17T09:37:51.701Z,102295.50
2023-04-17T09:40:21.739Z,102297.44
2023-04-17T09:43:09.869Z,102295.31
2023-04-17T09:45:41.703Z,102290.97
2023-04-17T09:48:13.256Z,102298.88
2023-04-17T09:50:40.541Z,102298.63
2023-04-17T09:53:08.454Z,102307.41
2023-04-17T09:55:38.218Z,102297.41
2023-04-17T09:58:06.523Z,102291.16
2023-04-17T10:00:33.451Z,102289.56
2023-04-17T10:03:00.955Z,102302.72
2023-04-17T10:05:30.271Z,102301.66
2023-04-17T10:07:57.412Z,102299.81
2023-04-17T10:10:33.856Z,102300.84
2023-04-17T10:15:34.475Z,102304.34
2023-04-17T10:18:25.529Z,102304.28
2023-04-17T10:20:54.106Z,102302.09
2023-04-17T10:23:27.965Z,102304.88
2023-04-17T10:26:25.740Z,102303.41
2023-04-17T10:28:54.324Z,102311.22
2023-04-17T10:31:23.451Z,102310.63
2023-04-17T10:33:51.720Z,102304.19
2023-04-17T10:36:39.772Z,102302.91
2023-04-17T10:39:18.226Z,102299.41
2023-04-17T10:42:05.476Z,102303.28
2023-04-17T10:44:36.026Z,102285.47
2023-04-17T10:47:07.455Z,102288.72
2023-04-17T10:49:48.822Z,102293.81
2023-04-17T10:52:41.453Z,102287.38
2023-04-17T10:55:09.746Z,102281.22
2023-04-17T10:58:06.010Z,102280.00
2023-04-17T11:00:36.899Z,102280.34
2023-04-17T11:03:05.074Z,102270.44
2023-04-17T11:05:32.753Z,102266.13
2023-04-17T11:07:59.702Z,102259.41
2023-04-17T11:10:27.676Z,102271.16
2023-04-17T11:12:56.535Z,102277.72
2023-04-17T11:15:37.299Z,102276.72
2023-04-17T11:18:04.354Z,102272.78
2023-04-17T11:20:33.235Z,102274.09
2023-04-17T11:23:05.800Z,102275.03
2023-04-17T11:25:35.735Z,102277.25
2023-04-17T11:28:05.929Z,102275.56
2023-04-17T11:30:42.296Z,102270.25
2023-04-17T11:33:09.539Z,102264.63
2023-04-17T11:35:40.936Z,102270.28
2023-04-17T11:38:23.478Z,102279.66
2023-04-17T11:40:54.720Z,102284.47
2023-04-17T11:43:23.479Z,102266.97
2023-04-17T11:45:54.071Z,102271.63
2023-04-17T11:48:32.480Z,102271.41
2023-04-17T11:51:03.771Z,102274.06
2023-04-17T11:53:31.084Z,102276.09
2023-04-17T11:56:16.321Z,102268.22
2023-04-17T11:58:47.116Z,102270.00
2023-04-17T12:01:13.923Z,102272.25
2023-04-17T12:03:41.853Z,102277.06
2023-04-17T12:06:11.856Z,102280.34
2023-04-17T12:08:56.737Z,102277.34
2023-04-17T12:11:26.323Z,102280.84
2023-04-17T12:13:54.246Z,102276.09
2023-04-17T12:16:21.810Z,102270.69
2023-04-17T12:18:48.743Z,102277.16
2023-04-17T12:21:15.620Z,102279.50
2023-04-17T12:23:42.752Z,102273.75
2023-04-17T12:26:09.893Z,102282.94
2023-04-17T12:28:36.747Z,102276.94
2023-04-17T12:31:04.749Z,102276.03
2023-04-17T12:33:32.540Z,102275.66
2023-04-17T12:36:01.373Z,102274.41
2023-04-17T12:38:28.721Z,102274.06
2023-04-17T12:40:55.576Z,102266.25
2023-04-17T12:43:22.380Z,102277.88
2023-04-17T12:45:49.251Z,102274.19
2023-04-17T12:48:16.268Z,102265.59
2023-04-17T12:50:44.370Z,102274.78
2023-04-17T12:53:13.598Z,102265.81
2023-04-17T12:55:41.612Z,102262.91
2023-04-17T12:58:10.188Z,102268.66
2023-04-17T13:00:38.087Z,102277.50
2023-04-17T13:03:05.681Z,102268.28
2023-04-17T13:05:32.875Z,102258.00
2023-04-17T13:07:59.722Z,102266.94
2023-04-17T13:10:26.956Z,102256.59
2023-04-17T13:12:53.749Z,102258.13
2023-04-17T13:15:20.644Z,102245.44
2023-04-17T13:17:47.670Z,102251.00
2023-04-17T13:20:14.583Z,102237.19
2023-04-17T13:22:41.383Z,102249.53
2023-04-17T13:25:08.912Z,102247.25
2023-04-17T13:27:35.680Z,102234.63
2023-04-17T13:30:02.484Z,102246.53
2023-04-17T13:32:29.224Z,102241.34
2023-04-17T13:34:58.064Z,102234.22
2023-04-17T13:37:25.805Z,102242.31
2023-04-17T13:39:52.877Z,102231.38
2023-04-17T13:42:19.976Z,102232.53
2023-04-17T13:44:47.035Z,102226.41
2023-04-17T13:47:15.250Z,102227.88
2023-04-17T13:49:42.183Z,102225.38
2023-04-17T13:52:09.130Z,102230.19
2023-04-17T13:54:35.944Z,102220.56
2023-04-17T13:57:03.192Z,102209.69
2023-04-17T13:59:30.784Z,102211.63
2023-04-17T14:01:57.965Z,102215.84
2023-04-17T14:04:24.996Z,102199.00
2023-04-17T14:06:51.997Z,102209.81
2023-04-17T14:09:19.065Z,102213.03
2023-04-17T14:11:46.228Z,102211.22
2023-04-17T14:14:13.109Z,102201.56
2023-04-17T14:16:40.779Z,102204.09
2023-04-17T14:19:13.951Z,102197.56
2023-04-17T14:21:41.846Z,102205.44
2023-04-17T14:24:09.034Z,102188.91
2023-04-17T14:26:37.794Z,102192.88
2023-04-17T14:29:04.737Z,102188.19
2023-04-17T14:31:32.044Z,102178.94
2023-04-17T14:33:58.811Z,102177.06
2023-04-17T14:36:26.299Z,102190.56
2023-04-17T14:38:54.357Z,102181.47
2023-04-17T14:41:21.271Z,102166.91
2023-04-17T14:43:48.192Z,102165.28
2023-04-17T14:46:15.087Z,102163.38
2023-04-17T14:51:15.268Z,102175.09
2023-04-17T14:53:42.140Z,102161.03
2023-04-17T14:56:09.445Z,102165.78
2023-04-17T14:58:36.308Z,102161.81
2023-04-17T15:01:03.935Z,102159.19
2023-04-17T15:03:32.434Z,102149.25
2023-04-17T15:06:01.548Z,102157.78
2023-04-17T15:08:28.707Z,102158.25
2023-04-17T15:10:55.873Z,102154.88
2023-04-17T15:13:22.582Z,102141.41
2023-04-17T15:15:49.432Z,102148.25
2023-04-17T15:18:16.308Z,102138.13
2023-04-17T15:20:43.404Z,102138.63
2023-04-17T15:23:10.179Z,102135.97
2023-04-17T15:25:37.090Z,102141.69
2023-04-17T15:28:04.190Z,102140.88
2023-04-17T15:30:30.988Z,102124.94
2023-04-17T15:32:59.498Z,102140.53
2023-04-17T15:35:26.296Z,102133.16
2023-04-17T15:37:53.238Z,102141.84
2023-04-17T15:40:21.155Z,102133.38
2023-04-17T15:42:49.524Z,102137.06
2023-04-17T15:45:20.590Z,102137.56
2023-04-17T15:47:50.796Z,102138.50
2023-04-17T15:50:19.203Z,102143.72
2023-04-17T15:52:51.942Z,102125.50
2023-04-17T15:55:42.266Z,102137.38
2023-04-17T15:58:13.099Z,102134.03
2023-04-17T16:00:42.769Z,102129.03
2023-04-17T16:03:12.748Z,102137.44
2023-04-17T16:05:45.623Z,102130.66
2023-04-17T16:08:12.826Z,102127.00
2023-04-17T16:10:42.588Z,102129.44
2023-04-17T16:13:09.635Z,102123.66
2023-04-17T16:15:42.419Z,102132.66
2023-04-17T16:18:09.738Z,102125.47
2023-04-17T16:20:36.586Z,102129.06
2023-04-17T16:23:09.389Z,102123.84
2023-04-17T16:25:36.123Z,102127.53
2023-04-17T16:28:12.734Z,102119.78
2023-04-17T16:30:45.239Z,102105.94
2023-04-17T16:33:22.564Z,102117.50
2023-04-17T16:35:52.349Z,102100.34
2023-04-17T16:38:31.741Z,102103.22
2023-04-17T16:41:05.244Z,102090.34
2023-04-17T16:43:35.340Z,102102.53
2023-04-17T16:46:10.864Z,102104.66
2023-04-17T16:48:46.061Z,102105.44
2023-04-17T16:51:12.951Z,102110.25
2023-04-17T16:53:44.900Z,102110.75
2023-04-17T16:56:11.744Z,102110.75
2023-04-17T16:58:38.619Z,102103.56
2023-04-17T17:01:05.712Z,102106.44
2023-04-17T17:03:33.866Z,102106.75
2023-04-17T17:06:03.492Z,102104.34
2023-04-17T17:08:30.716Z,102099.03
2023-04-17T17:10:57.462Z,102098.72
2023-04-17T17:13:24.362Z,102093.38
2023-04-17T17:15:51.234Z,102107.88
2023-04-17T17:18:18.205Z,102102.97
2023-04-17T17:20:45.065Z,102104.47
2023-04-17T17:23:11.893Z,102101.41
2023-04-17T17:25:39.427Z,102101.53
2023-04-17T17:28:06.187Z,102103.84
2023-04-17T17:30:33.280Z,102104.00
2023-04-17T17:33:00.486Z,102110.78
2023-04-17T17:35:28.491Z,102110.25
2023-04-17T17:37:55.208Z,102102.34
2023-04-17T17:40:21.996Z,102112.00
2023-04-17T17:42:48.998Z,102110.22
2023-04-17T17:45:15.928Z,102108.03
2023-04-17T17:47:42.609Z,102115.22
2023-04-17T17:50:18.472Z,102117.22
2023-04-17T17:52:58.764Z,102110.53
2023-04-17T17:55:47.160Z,102108.91
2023-04-17T17:58:16.921Z,102101.84
2023-04-17T18:00:50.986Z,102099.00
2023-04-17T18:03:18.349Z,102116.69
2023-04-17T18:05:49.398Z,102114.13
2023-04-17T18:08:23.383Z,102112.19
2023-04-17T18:10:52.120Z,102108.97
2023-04-17T18:13:19.092Z,102120.38
2023-04-17T18:15:46.245Z,102113.50
2023-04-17T18:18:13.297Z,102118.97
2023-04-17T18:20:40.484Z,102110.91
2023-04-17T18:23:07.418Z,102112.66
2023-04-17T18:25:36.054Z,102117.19
2023-04-17T18:28:05.172Z,102126.66
2023-04-17T18:30:32.180Z,102122.16
2023-04-17T18:32:59.185Z,102129.97
2023-04-17T18:35:31.020Z,102116.06
2023-04-17T18:38:04.670Z,102136.97
2023-04-17T18:40:31.812Z,102124.63
2023-04-17T18:42:59.550Z,102130.28
2023-04-17T18:45:26.457Z,102128.25
2023-04-17T18:47:53.342Z,102127.75
2023-04-17T18:50:20.538Z,102122.59
2023-04-17T18:52:50.933Z,102123.41
2023-04-17T18:55:18.433Z,102123.81
2023-04-17T18:57:46.518Z,102128.56
2023-04-17T19:00:16.788Z,102133.84
2023-04-17T19:02:54.448Z,102136.38
2023-04-17T19:05:21.857Z,102133.78
2023-04-17T19:07:49.306Z,102139.91
2023-04-17T19:10:19.722Z,102141.06
2023-04-17T19:12:49.824Z,102131.06
2023-04-17T19:15:17.743Z,102147.59
2023-04-17T19:17:47.987Z,102136.66
2023-04-17T19:20:16.844Z,102143.72
2023-04-17T19:22:43.835Z,102142.94
2023-04-17T19:25:16.818Z,102153.81
2023-04-17T19:27:44.423Z,102158.59
2023-04-17T19:30:15.171Z,102149.97
2023-04-17T19:32:45.038Z,102162.28
2023-04-17T19:35:12.060Z,102162.28
2023-04-17T19:37:39.183Z,102160.19
2023-04-17T19:40:21.407Z,102162.78
2023-04-17T19:42:51.034Z,102166.56
2023-04-17T19:45:18.187Z,102159.34
2023-04-17T19:47:45.352Z,102166.00
2023-04-17T19:50:12.405Z,102172.91
2023-04-17T19:52:40.217Z,102163.69
2023-04-17T19:55:09.334Z,102159.16
2023-04-17T19:57:36.622Z,102169.50
2023-04-17T20:00:04.030Z,102159.84
2023-04-17T20:02:39.458Z,102168.66
2023-04-17T20:05:07.115Z,102165.06
2023-04-17T20:07:34.164Z,102158.97
2023-04-17T20:10:02.163Z,102156.88
2023-04-17T20:12:31.852Z,102158.25
2023-04-17T20:15:00.267Z,102155.22
2023-04-17T20:17:30.832Z,102158.00
2023-04-17T20:20:03.861Z,102161.13
2023-04-17T20:22:40.319Z,102153.66
2023-04-17T20:25:08.182Z,102167.72
2023-04-17T20:27:36.649Z,102158.56
2023-04-17T20:30:04.098Z,102146.03
2023-04-17T20:32:32.328Z,102168.22
2023-04-17T20:35:07.054Z,102166.22
2023-04-17T20:37:34.705Z,102155.75
2023-04-17T20:40:02.001Z,102146.28
2023-04-17T20:42:29.332Z,102169.78
2023-04-17T20:44:56.292Z,102152.13
2023-04-17T20:47:27.295Z,102152.06
2023-04-17T20:50:12.424Z,102158.66
2023-04-17T20:52:58.545Z,102169.28
2023-04-17T20:55:25.591Z,102164.81
2023-04-17T20:57:56.602Z,102150.72
2023-04-17T21:00:23.413Z,102160.13
2023-04-17T21:02:50.350Z,102153.22
2023-04-17T21:05:17.315Z,102157.94
2023-04-17T21:07:44.138Z,102157.72
2023-04-17T21:10:10.996Z,102158.72
2023-04-17T21:12:37.840Z,102152.06
2023-04-17T21:15:04.932Z,102151.38
2023-04-17T21:17:31.615Z,102153.19
2023-04-17T21:19:58.567Z,102149.25
2023-04-17T21:22:27.949Z,102154.09
2023-04-17T21:24:54.916Z,102147.84
2023-04-17T21:27:21.667Z,102158.34
2023-04-17T21:29:48.609Z,102150.88
2023-04-17T21:32:15.442Z,102154.22
2023-04-17T21:34:42.248Z,102163.38
2023-04-17T21:37:09.072Z,102165.91
2023-04-17T21:39:35.923Z,102159.47
2023-04-17T21:42:02.728Z,102169.34
2023-04-17T21:44:29.450Z,102157.84
2023-04-17T21:46:57.515Z,102164.69
2023-04-17T21:49:24.369Z,102159.25
2023-04-17T21:51:51.250Z,102160.78
2023-04-17T21:54:17.924Z,102156.13
2023-04-17T21:56:44.786Z,102156.13
2023-04-17T21:59:15.098Z,102158.53
2023-04-17T22:01:41.944Z,102161.25
2023-04-17T22:04:08.806Z,102157.84
2023-04-17T22:06:39.406Z,102157.25
2023-04-17T22:09:06.249Z,102153.72
2023-04-17T22:11:32.896Z,102156.94
2023-04-17T22:13:59.684Z,102157.25
2023-04-17T22:16:26.448Z,102156.44
2023-04-17T22:18:53.240Z,102152.31
2023-04-17T22:21:20.113Z,102156.84
2023-04-17T22:23:46.764Z,102149.50
2023-04-17T22:26:13.558Z,102153.03
2023-04-17T22:28:40.316Z,102152.41
2023-04-17T22:31:07.055Z,102146.63
2023-04-17T22:33:33.790Z,102149.28
2023-04-17T22:36:00.646Z,102152.00
2023-04-17T22:38:29.273Z,102146.25
2023-04-17T22:40:56.019Z,102150.47
2023-04-17T22:43:22.675Z,102156.56
2023-04-17T22:45:49.486Z,102152.09
2023-04-17T22:48:16.228Z,102145.53
2023-04-17T22:50:43.813Z,102145.97
2023-04-17T22:53:10.689Z,102153.09
2023-04-17T22:55:37.458Z,102153.03
2023-04-17T22:58:04.449Z,102153.91
2023-04-17T23:00:32.132Z,102158.56
2023-04-17T23:02:58.984Z,102151.09
2023-04-17T23:05:25.823Z,102148.19
2023-04-17T23:07:52.646Z,102148.25
2023-04-17T23:10:22.456Z,102145.44
2023-04-17T23:12:49.273Z,102141.41
2023-04-17T23:15:16.018Z,102148.19
2023-04-17T23:17:42.846Z,102146.75
2023-04-17T23:20:10.011Z,102151.09
2023-04-17T23:22:36.806Z,102139.28
2023-04-17T23:25:03.781Z,102149.50
2023-04-17T23:27:30.978Z,102152.00
2023-04-17T23:29:59.162Z,102137.50
2023-04-17T23:32:25.966Z,102159.56
2023-04-17T23:34:52.636Z,102157.63
2023-04-17T23:37:19.586Z,102154.09
2023-04-17T23:39:47.434Z,102151.34
2023-04-17T23:42:14.462Z,102161.97
2023-04-17T23:44:41.136Z,102153.88
2023-04-17T23:47:08.919Z,102147.31
2023-04-17T23:49:36.080Z,102146.91
2023-04-17T23:52:02.953Z,102141.75
2023-04-17T23:54:33.025Z,102141.59
2023-04-17T23:57:00.207Z,102146.63
2023-04-17T23:59:34.573Z,102144.19
